createdAt,value
2022-09-14T04:17:37.892Z,93.85
2022-09-14T04:20:04.731Z,93.85
2022-09-14T04:22:31.160Z,94.26
2022-09-14T04:24:57.594Z,93.89
2022-09-14T04:27:24.059Z,93.71
2022-09-14T04:29:51.053Z,93.99
2022-09-14T04:32:23.918Z,93.71
2022-09-14T04:34:50.594Z,93.31
2022-09-14T04:37:17.009Z,93.48
2022-09-14T04:39:43.458Z,93.41
2022-09-14T04:42:09.892Z,93.81
2022-09-14T04:44:36.363Z,93.55
2022-09-14T04:47:03.335Z,93.73
2022-09-14T04:49:29.852Z,93.95
2022-09-14T04:51:56.259Z,93.76
2022-09-14T04:54:22.670Z,93.67
2022-09-14T04:56:49.115Z,93.72
2022-09-14T04:59:15.949Z,93.68
2022-09-14T05:01:50.294Z,93.73
2022-09-14T05:04:17.530Z,93.60
2022-09-14T05:06:44.710Z,93.58
2022-09-14T05:09:14.441Z,93.76
2022-09-14T05:11:41.915Z,94.21
2022-09-14T05:14:11.922Z,94.11
2022-09-14T05:16:39.919Z,94.11
2022-09-14T05:19:09.267Z,93.86
2022-09-14T05:21:37.406Z,93.54
2022-09-14T05:24:16.160Z,93.72
2022-09-14T05:26:44.225Z,93.51
2022-09-14T05:29:13.987Z,93.70
2022-09-14T05:31:40.848Z,93.85
2022-09-14T05:34:11.708Z,94.09
2022-09-14T05:36:45.495Z,94.29
2022-09-14T05:39:37.534Z,94.25
2022-09-14T05:42:04.185Z,93.83
2022-09-14T05:44:30.586Z,93.73
2022-09-14T05:46:56.987Z,93.93
2022-09-14T05:49:25.248Z,93.91
2022-09-14T05:51:51.698Z,94.45
2022-09-14T05:54:18.205Z,94.36
2022-09-14T05:57:10.672Z,94.17
2022-09-14T05:59:37.174Z,94.63
2022-09-14T06:02:03.995Z,94.60
2022-09-14T06:04:30.459Z,94.70
2022-09-14T06:07:17.364Z,94.29
2022-09-14T06:09:43.374Z,94.02
2022-09-14T06:12:09.915Z,93.68
2022-09-14T06:14:41.467Z,94.07
2022-09-14T06:17:08.014Z,93.97
2022-09-14T06:19:35.552Z,93.38
2022-09-14T06:22:01.993Z,93.40
2022-09-14T06:24:30.804Z,93.70
2022-09-14T06:27:47.804Z,93.56
2022-09-14T06:30:14.290Z,93.51
2022-09-14T06:32:40.673Z,93.21
2022-09-14T06:35:12.202Z,93.02
2022-09-14T06:37:38.863Z,92.84
2022-09-14T06:40:05.866Z,93.25
2022-09-14T06:42:32.316Z,92.67
2022-09-14T06:44:58.801Z,92.58
2022-09-14T06:47:25.297Z,92.35
2022-09-14T06:50:10.487Z,92.29
2022-09-14T06:52:37.367Z,92.32
2022-09-14T06:55:04.203Z,92.29
2022-09-14T06:57:52.469Z,92.62
2022-09-14T07:00:19.184Z,93.19
2022-09-14T07:02:47.140Z,93.82
2022-09-14T07:05:15.177Z,93.57
2022-09-14T07:07:41.628Z,93.48
2022-09-14T07:10:08.289Z,93.05
2022-09-14T07:12:34.697Z,93.48
2022-09-14T07:15:01.117Z,93.76
2022-09-14T07:17:27.547Z,94.13
2022-09-14T07:19:55.946Z,93.76
2022-09-14T07:22:22.378Z,93.27
2022-09-14T07:24:48.821Z,93.08
2022-09-14T07:27:15.376Z,93.64
2022-09-14T07:29:41.816Z,92.74
2022-09-14T07:32:16.340Z,92.26
2022-09-14T07:34:43.544Z,91.74
2022-09-14T07:37:10.474Z,91.79
2022-09-14T07:39:36.918Z,90.75
2022-09-14T07:42:03.522Z,90.28
2022-09-14T07:44:29.960Z,89.51
2022-09-14T07:46:56.388Z,89.07
2022-09-14T07:49:48.794Z,88.73
2022-09-14T07:52:17.365Z,88.92
2022-09-14T07:54:44.233Z,89.14
2022-09-14T07:57:21.647Z,88.65
2022-09-14T08:00:11.187Z,89.38
2022-09-14T08:02:58.839Z,88.67
2022-09-14T08:05:42.875Z,88.94
2022-09-14T08:08:10.098Z,89.10
2022-09-14T08:10:36.514Z,89.71
2022-09-14T08:13:03.897Z,89.47
2022-09-14T08:15:31.738Z,89.37
2022-09-14T08:17:58.144Z,90.33
2022-09-14T08:20:53.663Z,90.27
2022-09-14T08:23:22.537Z,89.35
2022-09-14T08:25:51.665Z,90.51
2022-09-14T08:28:18.061Z,90.97
2022-09-14T08:30:44.616Z,91.80
2022-09-14T08:33:11.068Z,91.54
2022-09-14T08:35:57.369Z,91.70
2022-09-14T08:38:24.686Z,92.79
2022-09-14T08:40:51.501Z,92.45
2022-09-14T08:43:21.283Z,92.27
2022-09-14T08:45:49.658Z,92.07
2022-09-14T08:48:23.892Z,92.46
2022-09-14T08:50:54.726Z,92.42
2022-09-14T08:53:22.412Z,91.81
2022-09-14T08:56:07.774Z,91.95
2022-09-14T08:59:10.733Z,93.85
2022-09-14T09:01:56.184Z,94.79
2022-09-14T09:05:01.512Z,94.58
2022-09-14T09:07:38.979Z,94.89
2022-09-14T09:10:08.585Z,95.25
2022-09-14T09:12:45.700Z,95.29
2022-09-14T09:15:19.782Z,95.78
2022-09-14T09:17:51.226Z,96.69
2022-09-14T09:20:23.763Z,95.92
2022-09-14T09:23:33.171Z,95.26
2022-09-14T09:26:31.870Z,96.24
2022-09-14T09:29:00.509Z,94.42
2022-09-14T09:31:34.494Z,94.87
2022-09-14T09:34:34.874Z,94.24
2022-09-14T09:37:15.825Z,94.08
2022-09-14T09:39:43.783Z,93.96
2022-09-14T09:42:28.183Z,94.96
2022-09-14T09:44:59.298Z,94.92
2022-09-14T09:47:30.655Z,94.37
2022-09-14T09:50:00.901Z,94.07
2022-09-14T09:52:28.237Z,94.05
2022-09-14T09:54:56.477Z,92.73
2022-09-14T09:57:36.838Z,91.96
2022-09-14T10:00:14.948Z,92.30
2022-09-14T10:02:42.517Z,91.33
2022-09-14T10:05:08.964Z,92.40
2022-09-14T10:07:58.204Z,93.71
2022-09-14T10:10:44.881Z,92.27
2022-09-14T10:13:28.968Z,91.30
2022-09-14T10:16:15.742Z,92.31
2022-09-14T10:18:53.354Z,92.27
2022-09-14T10:21:23.674Z,92.73
2022-09-14T10:24:16.957Z,91.33
2022-09-14T10:26:44.495Z,90.78
2022-09-14T10:29:42.213Z,89.34
2022-09-14T10:32:23.370Z,89.12
2022-09-14T10:34:51.421Z,88.55
2022-09-14T10:37:36.622Z,89.08
2022-09-14T10:40:13.285Z,89.93
2022-09-14T10:43:09.063Z,89.58
2022-09-14T10:45:49.929Z,90.49
2022-09-14T10:48:45.360Z,90.49
2022-09-14T10:51:42.330Z,90.49
2022-09-14T10:54:38.015Z,89.50
2022-09-14T10:57:23.927Z,87.81
2022-09-14T10:59:55.389Z,86.77
2022-09-14T11:03:05.355Z,89.20
2022-09-14T11:05:43.229Z,90.22
2022-09-14T11:09:00.732Z,89.01
2022-09-14T11:11:33.303Z,89.10
2022-09-14T11:14:13.743Z,88.84
2022-09-14T11:17:12.669Z,88.26
2022-09-14T11:20:07.249Z,89.47
2022-09-14T11:23:02.594Z,90.00
2022-09-14T11:26:08.457Z,91.21
2022-09-14T11:28:46.507Z,90.19
2022-09-14T11:31:25.026Z,89.10
2022-09-14T11:34:00.536Z,88.09
2022-09-14T11:36:34.335Z,87.13
2022-09-14T11:39:38.365Z,86.20
2022-09-14T11:42:15.332Z,87.56
2022-09-14T11:44:44.882Z,87.08
2022-09-14T11:47:24.011Z,85.77
2022-09-14T11:50:02.863Z,85.15
2022-09-14T11:52:31.275Z,86.09
2022-09-14T11:54:59.481Z,85.36
2022-09-14T11:57:32.415Z,84.30
2022-09-14T12:00:30.784Z,83.70
2022-09-14T12:02:58.604Z,81.20
2022-09-14T12:05:29.692Z,80.97
2022-09-14T12:08:04.886Z,80.19
2022-09-14T12:10:31.638Z,79.24
2022-09-14T12:13:18.069Z,79.43
2022-09-14T12:15:46.270Z,78.25
2022-09-14T12:18:22.954Z,78.11
2022-09-14T12:21:18.654Z,78.44
2022-09-14T12:23:57.048Z,77.69
2022-09-14T12:26:34.826Z,76.13
2022-09-14T12:29:44.260Z,74.29
2022-09-14T12:32:39.785Z,75.23
2022-09-14T12:35:49.270Z,75.69
2022-09-14T12:38:52.235Z,76.08
2022-09-14T12:41:18.659Z,76.95
2022-09-14T12:43:49.552Z,76.50
2022-09-14T12:46:38.309Z,75.82
2022-09-14T12:49:30.738Z,78.08
2022-09-14T12:52:02.209Z,76.92
2022-09-14T12:54:35.513Z,78.04
2022-09-14T12:57:23.858Z,78.24
2022-09-14T13:00:04.948Z,77.41
2022-09-14T13:03:10.116Z,80.21
2022-09-14T13:05:36.770Z,80.87
2022-09-14T13:08:11.206Z,80.20
2022-09-14T13:11:28.500Z,80.55
2022-09-14T13:13:56.450Z,82.42
2022-09-14T13:16:46.501Z,81.97
2022-09-14T13:19:28.448Z,82.00
2022-09-14T13:22:25.813Z,83.86
2022-09-14T13:24:53.239Z,84.92
2022-09-14T13:27:29.228Z,84.98
2022-09-14T13:30:01.671Z,85.85
2022-09-14T13:32:28.402Z,85.39
2022-09-14T13:34:55.568Z,86.76
2022-09-14T13:37:23.446Z,86.92
2022-09-14T13:39:53.450Z,86.21
2022-09-14T13:42:21.048Z,84.89
2022-09-14T13:44:49.703Z,84.30
2022-09-14T13:47:21.208Z,83.60
2022-09-14T13:49:50.351Z,83.62
2022-09-14T13:52:21.808Z,83.23
2022-09-14T13:55:27.265Z,82.35
2022-09-14T13:58:21.009Z,80.88
2022-09-14T14:00:55.924Z,81.45
2022-09-14T14:03:28.764Z,81.26
2022-09-14T14:06:25.139Z,83.17
2022-09-14T14:09:14.447Z,84.22
2022-09-14T14:11:51.766Z,85.49
2022-09-14T14:14:30.135Z,86.58
2022-09-14T14:17:30.418Z,85.85
2022-09-14T14:20:20.973Z,85.57
2022-09-14T14:23:13.171Z,85.71
2022-09-14T14:25:45.991Z,86.64
2022-09-14T14:28:26.539Z,88.65
2022-09-14T14:30:54.759Z,89.95
2022-09-14T14:33:22.514Z,90.22
2022-09-14T14:35:54.579Z,92.67
2022-09-14T14:38:23.511Z,92.52
2022-09-14T14:40:54.031Z,91.65
2022-09-14T14:43:30.677Z,92.07
2022-09-14T14:45:59.632Z,91.57
2022-09-14T14:48:27.035Z,91.62
2022-09-14T14:50:55.391Z,92.42
2022-09-14T14:53:25.670Z,91.97
2022-09-14T14:55:53.147Z,90.94
2022-09-14T14:58:21.095Z,90.61
2022-09-14T15:00:52.914Z,90.65
2022-09-14T15:03:21.550Z,91.04
2022-09-14T15:05:49.220Z,91.57
2022-09-14T15:08:19.711Z,91.51
2022-09-14T15:10:46.174Z,90.58
2022-09-14T15:14:04.670Z,91.22
2022-09-14T15:16:35.002Z,90.58
2022-09-14T15:19:02.066Z,90.14
2022-09-14T15:21:28.490Z,90.68
2022-09-14T15:24:23.990Z,90.25
2022-09-14T15:27:16.681Z,90.32
2022-09-14T15:29:43.187Z,89.36
2022-09-14T15:32:11.049Z,89.40
2022-09-14T15:35:02.624Z,88.27
2022-09-14T15:37:29.073Z,87.58
2022-09-14T15:39:55.599Z,88.05
2022-09-14T15:42:22.804Z,87.84
2022-09-14T15:44:49.367Z,86.69
2022-09-14T15:47:16.582Z,86.18
2022-09-14T15:49:46.141Z,85.91
2022-09-14T15:52:12.586Z,88.19
2022-09-14T15:54:39.397Z,86.40
2022-09-14T15:57:09.935Z,86.20
2022-09-14T15:59:36.512Z,88.41
2022-09-14T16:02:03.498Z,88.33
2022-09-14T16:04:38.076Z,87.76
2022-09-14T16:07:09.516Z,88.57
2022-09-14T16:09:37.763Z,87.91
2022-09-14T16:12:04.528Z,87.71
2022-09-14T16:14:31.022Z,87.67
2022-09-14T16:17:00.307Z,88.17
2022-09-14T16:19:27.417Z,88.61
2022-09-14T16:21:54.024Z,88.88
2022-09-14T16:24:21.517Z,89.71
2022-09-14T16:26:48.045Z,91.06
2022-09-14T16:31:43.771Z,92.98
2022-09-14T16:34:16.201Z,93.27
2022-09-14T16:36:43.869Z,93.42
2022-09-14T16:39:14.168Z,93.21
2022-09-14T16:41:42.122Z,92.75
2022-09-14T16:44:19.699Z,92.11
2022-09-14T16:46:48.580Z,92.22
2022-09-14T16:49:16.111Z,92.65
2022-09-14T16:51:42.595Z,92.64
2022-09-14T16:54:14.150Z,93.34
2022-09-14T16:56:40.632Z,93.44
2022-09-14T16:59:07.540Z,92.61
2022-09-14T17:01:40.216Z,93.50
2022-09-14T17:04:13.803Z,92.73
2022-09-14T17:06:41.590Z,92.90
2022-09-14T17:09:11.135Z,93.86
2022-09-14T17:11:39.506Z,94.58
2022-09-14T17:14:06.961Z,94.31
2022-09-14T17:16:34.265Z,94.33
2022-09-14T17:19:04.161Z,94.65
2022-09-14T17:21:36.308Z,95.96
2022-09-14T17:24:05.560Z,96.67
2022-09-14T17:26:32.841Z,97.69
2022-09-14T17:29:00.544Z,99.64
2022-09-14T17:31:33.955Z,99.06
2022-09-14T17:34:01.900Z,98.07
2022-09-14T17:36:29.017Z,97.48
2022-09-14T17:38:58.025Z,96.86
2022-09-14T17:41:27.882Z,95.81
2022-09-14T17:43:58.751Z,95.81
2022-09-14T17:46:26.202Z,96.84
2022-09-14T17:48:53.124Z,95.82
2022-09-14T17:51:24.230Z,95.61
2022-09-14T17:53:53.079Z,94.57
2022-09-14T17:56:22.907Z,94.77
2022-09-14T17:58:58.296Z,94.77
2022-09-14T18:01:24.879Z,94.56
2022-09-14T18:03:54.170Z,94.46
2022-09-14T18:06:23.647Z,92.98
2022-09-14T18:08:55.019Z,89.28
2022-09-14T18:11:22.318Z,91.22
2022-09-14T18:13:51.747Z,91.66
2022-09-14T18:16:20.535Z,90.62
2022-09-14T18:18:47.532Z,91.21
2022-09-14T18:21:16.067Z,91.45
2022-09-14T18:23:43.546Z,89.93
2022-09-14T18:26:10.018Z,90.46
2022-09-14T18:28:37.614Z,90.70
2022-09-14T18:31:11.238Z,90.33
2022-09-14T18:33:37.785Z,91.90
2022-09-14T18:36:05.992Z,93.99
2022-09-14T18:38:33.631Z,95.02
2022-09-14T18:41:11.341Z,94.75
2022-09-14T18:43:38.282Z,96.11
2022-09-14T18:46:06.563Z,95.00
2022-09-14T18:48:35.194Z,94.41
2022-09-14T18:51:04.939Z,94.94
2022-09-14T18:53:31.866Z,95.04
2022-09-14T18:56:16.315Z,95.82
2022-09-14T18:58:45.946Z,96.58
2022-09-14T19:01:13.713Z,95.65
2022-09-14T19:03:41.503Z,95.94
2022-09-14T19:06:13.621Z,95.28
2022-09-14T19:08:41.054Z,95.36
2022-09-14T19:11:18.023Z,96.74
2022-09-14T19:13:45.296Z,96.93
2022-09-14T19:16:17.815Z,95.88
2022-09-14T19:18:46.789Z,96.67
2022-09-14T19:21:16.104Z,96.74
2022-09-14T19:23:43.155Z,95.96
2022-09-14T19:26:17.065Z,96.13
2022-09-14T19:28:44.535Z,96.43
2022-09-14T19:31:13.713Z,95.72
2022-09-14T19:33:45.037Z,95.73
2022-09-14T19:36:19.714Z,96.01
2022-09-14T19:38:47.015Z,96.19
2022-09-14T19:41:13.791Z,95.33
2022-09-14T19:43:40.265Z,94.78
2022-09-14T19:46:10.038Z,94.71
2022-09-14T19:48:36.938Z,95.15
2022-09-14T19:51:06.948Z,95.40
2022-09-14T19:53:35.755Z,97.32
2022-09-14T19:56:04.447Z,97.82
2022-09-14T19:58:35.076Z,97.67
2022-09-14T20:01:01.747Z,98.08
2022-09-14T20:03:28.362Z,97.91
2022-09-14T20:06:19.557Z,97.86
2022-09-14T20:08:47.041Z,98.03
2022-09-14T20:11:19.735Z,99.11
2022-09-14T20:13:48.347Z,99.79
2022-09-14T20:16:27.865Z,100.00
2022-09-14T20:18:55.590Z,100.00
2022-09-14T20:21:24.390Z,100.00
2022-09-14T20:24:14.653Z,100.00
2022-09-14T20:26:42.606Z,100.00
2022-09-14T20:29:09.131Z,100.00
2022-09-14T20:31:35.834Z,100.00
2022-09-14T20:34:02.987Z,100.00
2022-09-14T20:36:29.491Z,100.00
2022-09-14T20:38:59.086Z,100.00
2022-09-14T20:41:28.616Z,100.00
2022-09-14T20:43:55.652Z,100.00
2022-09-14T20:46:24.882Z,100.00
2022-09-14T20:48:52.462Z,100.00
2022-09-14T20:51:20.889Z,100.00
2022-09-14T20:53:48.069Z,100.00
2022-09-14T20:56:21.033Z,100.00
2022-09-14T20:58:48.435Z,100.00
2022-09-14T21:01:17.606Z,100.00
2022-09-14T21:03:46.079Z,100.00
2022-09-14T21:06:18.794Z,100.00
2022-09-14T21:08:45.762Z,100.00
2022-09-14T21:11:19.464Z,100.00
2022-09-14T21:13:46.522Z,100.00
2022-09-14T21:16:29.218Z,100.00
2022-09-14T21:19:01.072Z,100.00
2022-09-14T21:21:28.756Z,100.00
2022-09-14T21:23:57.286Z,100.00
2022-09-14T21:26:25.506Z,100.00
2022-09-14T21:29:00.538Z,100.00
2022-09-14T21:31:29.755Z,100.00
2022-09-14T21:33:58.998Z,100.00
2022-09-14T21:36:30.694Z,100.00
2022-09-14T21:38:59.978Z,100.00
2022-09-14T21:41:28.763Z,100.00
2022-09-14T21:43:57.142Z,100.00
2022-09-14T21:46:24.783Z,100.00
2022-09-14T21:48:52.025Z,100.00
2022-09-14T21:51:24.214Z,100.00
2022-09-14T21:53:53.332Z,100.00
2022-09-14T21:56:22.348Z,100.00
2022-09-14T21:59:01.730Z,100.00
